sensor_id;sensor_type;location;lat;lon;timestamp;P1;durP1;ratioP1;P2;durP2;ratioP2
18783;SDS011;9520;50.954;6.968;2024-01-07T00:00:11;2.58;;;2.17;;
18783;SDS011;9520;50.954;6.968;2024-01-07T00:00:34;5.43;;;2.03;;
18783;SDS011;9520;50.954;6.968;2024-01-07T00:00:56;2.47;;;1.90;;
18783;SDS011;9520;50.954;6.968;2024-01-07T00:01:18;4.60;;;2.95;;
18783;SDS011;9520;50.954;6.968;2024-01-07T00:01:41;4.53;;;3.00;;
18783;SDS011;9520;50.954;6.968;2024-01-07T00:02:07;4.65;;;2.15;;
18783;SDS011;9520;50.954;6.968;2024-01-07T00:02:30;4.55;;;2.28;;
18783;SDS011;9520;50.954;6.968;2024-01-07T00:02:52;2.35;;;1.77;;
18783;SDS011;9520;50.954;6.968;2024-01-07T00:03:14;2.38;;;1.85;;
18783;SDS011;9520;50.954;6.968;2024-01-07T00:03:36;5.28;;;2.55;;
18783;SDS011;9520;50.954;6.968;2024-01-07T00:03:58;4.97;;;2.13;;
18783;SDS011;9520;50.954;6.968;2024-01-07T00:04:21;5.22;;;2.55;;
18783;SDS011;9520;50.954;6.968;2024-01-07T00:04:43;3.70;;;2.25;;
18783;SDS011;9520;50.954;6.968;2024-01-07T00:05:04;4.40;;;2.00;;
18783;SDS011;9520;50.954;6.968;2024-01-07T00:05:28;2.92;;;2.25;;
18783;SDS011;9520;50.954;6.968;2024-01-07T00:05:53;5.00;;;1.95;;
18783;SDS011;9520;50.954;6.968;2024-01-07T00:06:15;6.85;;;2.50;;
18783;SDS011;9520;50.954;6.968;2024-01-07T00:06:38;2.83;;;2.35;;
18783;SDS011;9520;50.954;6.968;2024-01-07T00:06:59;3.42;;;2.38;;
18783;SDS011;9520;50.954;6.968;2024-01-07T00:07:21;3.65;;;2.17;;
18783;SDS011;9520;50.954;6.968;2024-01-07T00:07:43;6.53;;;2.78;;
18783;SDS011;9520;50.954;6.968;2024-01-07T00:08:05;5.13;;;2.28;;
18783;SDS011;9520;50.954;6.968;2024-01-07T00:08:27;4.88;;;2.65;;
18783;SDS011;9520;50.954;6.968;2024-01-07T00:08:49;2.53;;;2.22;;
18783;SDS011;9520;50.954;6.968;2024-01-07T00:09:11;3.53;;;2.03;;
18783;SDS011;9520;50.954;6.968;2024-01-07T00:09:33;4.50;;;2.65;;
18783;SDS011;9520;50.954;6.968;2024-01-07T00:09:55;4.03;;;2.58;;
18783;SDS011;9520;50.954;6.968;2024-01-07T00:10:17;2.88;;;2.05;;
18783;SDS011;9520;50.954;6.968;2024-01-07T00:10:38;3.90;;;2.28;;
18783;SDS011;9520;50.954;6.968;2024-01-07T00:11:01;4.70;;;1.95;;
18783;SDS011;9520;50.954;6.968;2024-01-07T00:11:23;3.55;;;1.80;;
18783;SDS011;9520;50.954;6.968;2024-01-07T00:11:46;1.98;;;1.40;;
18783;SDS011;9520;50.954;6.968;2024-01-07T00:12:07;1.80;;;1.70;;
18783;SDS011;9520;50.954;6.968;2024-01-07T00:12:29;2.65;;;1.92;;
18783;SDS011;9520;50.954;6.968;2024-01-07T00:12:52;3.10;;;2.13;;
18783;SDS011;9520;50.954;6.968;2024-01-07T00:13:14;2.72;;;1.73;;
18783;SDS011;9520;50.954;6.968;2024-01-07T00:13:36;3.40;;;1.75;;
18783;SDS011;9520;50.954;6.968;2024-01-07T00:13:58;9.63;;;2.50;;
18783;SDS011;9520;50.954;6.968;2024-01-07T00:14:20;7.22;;;2.20;;
18783;SDS011;9520;50.954;6.968;2024-01-07T00:14:42;5.55;;;2.50;;
18783;SDS011;9520;50.954;6.968;2024-01-07T00:15:04;2.03;;;1.40;;
18783;SDS011;9520;50.954;6.968;2024-01-07T00:15:26;2.67;;;1.98;;
18783;SDS011;9520;50.954;6.968;2024-01-07T00:15:48;3.85;;;2.28;;
18783;SDS011;9520;50.954;6.968;2024-01-07T00:16:10;3.80;;;1.90;;
18783;SDS011;9520;50.954;6.968;2024-01-07T00:16:33;5.78;;;2.00;;
18783;SDS011;9520;50.954;6.968;2024-01-07T00:16:55;5.03;;;1.92;;
18783;SDS011;9520;50.954;6.968;2024-01-07T00:17:17;1.77;;;1.38;;
18783;SDS011;9520;50.954;6.968;2024-01-07T00:17:38;3.33;;;2.22;;
18783;SDS011;9520;50.954;6.968;2024-01-07T00:18:00;3.35;;;2.53;;
18783;SDS011;9520;50.954;6.968;2024-01-07T00:18:23;4.65;;;2.03;;
18783;SDS011;9520;50.954;6.968;2024-01-07T00:18:45;2.75;;;1.77;;
18783;SDS011;9520;50.954;6.968;2024-01-07T00:19:07;2.47;;;1.88;;
18783;SDS011;9520;50.954;6.968;2024-01-07T00:19:29;2.85;;;2.38;;
18783;SDS011;9520;50.954;6.968;2024-01-07T00:19:52;2.03;;;1.83;;
18783;SDS011;9520;50.954;6.968;2024-01-07T00:20:14;2.35;;;1.85;;
18783;SDS011;9520;50.954;6.968;2024-01-07T00:20:37;2.38;;;1.63;;
18783;SDS011;9520;50.954;6.968;2024-01-07T00:21:00;4.07;;;2.15;;
18783;SDS011;9520;50.954;6.968;2024-01-07T00:21:21;4.60;;;2.28;;
18783;SDS011;9520;50.954;6.968;2024-01-07T00:21:43;2.20;;;1.67;;
18783;SDS011;9520;50.954;6.968;2024-01-07T00:22:04;1.83;;;1.40;;
18783;SDS011;9520;50.954;6.968;2024-01-07T00:22:27;5.05;;;1.83;;
18783;SDS011;9520;50.954;6.968;2024-01-07T00:22:49;2.35;;;1.90;;
18783;SDS011;9520;50.954;6.968;2024-01-07T00:23:10;2.38;;;1.95;;
18783;SDS011;9520;50.954;6.968;2024-01-07T00:23:32;2.13;;;1.55;;
18783;SDS011;9520;50.954;6.968;2024-01-07T00:23:54;2.58;;;1.92;;
18783;SDS011;9520;50.954;6.968;2024-01-07T00:24:15;2.30;;;1.85;;
18783;SDS011;9520;50.954;6.968;2024-01-07T00:24:38;2.50;;;1.83;;
18783;SDS011;9520;50.954;6.968;2024-01-07T00:25:00;1.98;;;1.60;;
18783;SDS011;9520;50.954;6.968;2024-01-07T00:25:21;2.95;;;2.10;;
18783;SDS011;9520;50.954;6.968;2024-01-07T00:25:43;2.78;;;1.80;;
18783;SDS011;9520;50.954;6.968;2024-01-07T00:26:05;2.47;;;1.48;;
18783;SDS011;9520;50.954;6.968;2024-01-07T00:26:28;3.67;;;1.90;;
18783;SDS011;9520;50.954;6.968;2024-01-07T00:26:51;5.20;;;1.80;;
18783;SDS011;9520;50.954;6.968;2024-01-07T00:27:13;1.60;;;1.40;;
18783;SDS011;9520;50.954;6.968;2024-01-07T00:27:34;2.35;;;1.77;;
18783;SDS011;9520;50.954;6.968;2024-01-07T00:27:56;3.55;;;2.13;;
18783;SDS011;9520;50.954;6.968;2024-01-07T00:28:18;1.95;;;1.73;;
18783;SDS011;9520;50.954;6.968;2024-01-07T00:28:41;3.33;;;1.75;;
18783;SDS011;9520;50.954;6.968;2024-01-07T00:29:03;4.50;;;2.20;;
18783;SDS011;9520;50.954;6.968;2024-01-07T00:29:24;4.60;;;1.75;;
18783;SDS011;9520;50.954;6.968;2024-01-07T00:29:46;1.95;;;1.75;;
18783;SDS011;9520;50.954;6.968;2024-01-07T00:30:08;1.95;;;1.50;;
18783;SDS011;9520;50.954;6.968;2024-01-07T00:30:31;2.60;;;1.60;;
18783;SDS011;9520;50.954;6.968;2024-01-07T00:30:54;2.22;;;1.40;;
18783;SDS011;9520;50.954;6.968;2024-01-07T00:31:15;3.15;;;1.90;;
18783;SDS011;9520;50.954;6.968;2024-01-07T00:31:37;4.05;;;1.88;;
18783;SDS011;9520;50.954;6.968;2024-01-07T00:32:01;2.90;;;1.60;;
18783;SDS011;9520;50.954;6.968;2024-01-07T00:32:22;2.78;;;1.38;;
18783;SDS011;9520;50.954;6.968;2024-01-07T00:32:44;1.60;;;1.30;;
18783;SDS011;9520;50.954;6.968;2024-01-07T00:33:06;2.60;;;1.23;;
18783;SDS011;9520;50.954;6.968;2024-01-07T00:33:28;2.03;;;1.45;;
18783;SDS011;9520;50.954;6.968;2024-01-07T00:33:51;2.28;;;1.90;;
18783;SDS011;9520;50.954;6.968;2024-01-07T00:34:13;2.30;;;1.77;;
18783;SDS011;9520;50.954;6.968;2024-01-07T00:34:36;2.00;;;1.80;;
18783;SDS011;9520;50.954;6.968;2024-01-07T00:34:58;2.33;;;1.77;;
18783;SDS011;9520;50.954;6.968;2024-01-07T00:35:19;2.58;;;1.77;;
18783;SDS011;9520;50.954;6.968;2024-01-07T00:35:41;2.65;;;1.83;;
18783;SDS011;9520;50.954;6.968;2024-01-07T00:36:03;4.30;;;2.05;;
18783;SDS011;9520;50.954;6.968;2024-01-07T00:36:25;4.97;;;1.83;;
18783;SDS011;9520;50.954;6.968;2024-01-07T00:36:47;1.85;;;1.67;;
18783;SDS011;9520;50.954;6.968;2024-01-07T00:37:09;3.67;;;1.60;;
18783;SDS011;9520;50.954;6.968;2024-01-07T00:37:31;3.17;;;1.85;;
18783;SDS011;9520;50.954;6.968;2024-01-07T00:37:52;2.85;;;1.98;;
18783;SDS011;9520;50.954;6.968;2024-01-07T00:38:14;2.80;;;1.85;;
18783;SDS011;9520;50.954;6.968;2024-01-07T00:38:36;2.30;;;1.65;;
18783;SDS011;9520;50.954;6.968;2024-01-07T00:38:59;3.75;;;2.10;;
18783;SDS011;9520;50.954;6.968;2024-01-07T00:39:20;2.15;;;1.65;;
18783;SDS011;9520;50.954;6.968;2024-01-07T00:39:42;3.70;;;1.77;;
18783;SDS011;9520;50.954;6.968;2024-01-07T00:40:06;3.85;;;2.20;;
18783;SDS011;9520;50.954;6.968;2024-01-07T00:40:28;1.60;;;1.50;;
18783;SDS011;9520;50.954;6.968;2024-01-07T00:40:51;3.67;;;2.08;;
18783;SDS011;9520;50.954;6.968;2024-01-07T00:41:13;1.85;;;1.50;;
18783;SDS011;9520;50.954;6.968;2024-01-07T00:41:35;2.22;;;1.63;;
18783;SDS011;9520;50.954;6.968;2024-01-07T00:41:58;1.33;;;1.23;;
18783;SDS011;9520;50.954;6.968;2024-01-07T00:42:20;2.83;;;1.63;;
18783;SDS011;9520;50.954;6.968;2024-01-07T00:42:42;3.33;;;2.22;;
18783;SDS011;9520;50.954;6.968;2024-01-07T00:43:05;2.17;;;1.75;;
18783;SDS011;9520;50.954;6.968;2024-01-07T00:43:27;2.00;;;1.80;;
18783;SDS011;9520;50.954;6.968;2024-01-07T00:43:49;2.15;;;1.85;;
18783;SDS011;9520;50.954;6.968;2024-01-07T00:44:11;1.30;;;1.20;;
18783;SDS011;9520;50.954;6.968;2024-01-07T00:44:32;1.75;;;1.50;;
18783;SDS011;9520;50.954;6.968;2024-01-07T00:44:55;2.80;;;2.05;;
18783;SDS011;9520;50.954;6.968;2024-01-07T00:45:17;3.40;;;2.03;;
18783;SDS011;9520;50.954;6.968;2024-01-07T00:45:39;2.25;;;1.52;;
18783;SDS011;9520;50.954;6.968;2024-01-07T00:46:01;2.25;;;1.70;;
18783;SDS011;9520;50.954;6.968;2024-01-07T00:46:24;3.88;;;1.90;;
18783;SDS011;9520;50.954;6.968;2024-01-07T00:46:45;2.63;;;1.73;;
18783;SDS011;9520;50.954;6.968;2024-01-07T00:47:09;1.75;;;1.45;;
18783;SDS011;9520;50.954;6.968;2024-01-07T00:47:31;4.13;;;1.63;;
18783;SDS011;9520;50.954;6.968;2024-01-07T00:47:53;6.20;;;1.48;;
18783;SDS011;9520;50.954;6.968;2024-01-07T00:48:16;6.95;;;1.60;;
18783;SDS011;9520;50.954;6.968;2024-01-07T00:48:39;6.00;;;2.25;;
18783;SDS011;9520;50.954;6.968;2024-01-07T00:49:01;7.47;;;2.05;;
18783;SDS011;9520;50.954;6.968;2024-01-07T00:49:23;3.20;;;2.00;;
18783;SDS011;9520;50.954;6.968;2024-01-07T00:49:45;2.42;;;1.65;;
18783;SDS011;9520;50.954;6.968;2024-01-07T00:50:07;1.70;;;1.40;;
18783;SDS011;9520;50.954;6.968;2024-01-07T00:50:29;2.53;;;1.70;;
18783;SDS011;9520;50.954;6.968;2024-01-07T00:50:51;3.15;;;1.92;;
18783;SDS011;9520;50.954;6.968;2024-01-07T00:51:13;4.15;;;2.10;;
18783;SDS011;9520;50.954;6.968;2024-01-07T00:51:35;2.35;;;1.42;;
18783;SDS011;9520;50.954;6.968;2024-01-07T00:51:57;1.95;;;1.48;;
18783;SDS011;9520;50.954;6.968;2024-01-07T00:52:20;3.38;;;1.58;;
18783;SDS011;9520;50.954;6.968;2024-01-07T00:52:44;3.58;;;1.63;;
18783;SDS011;9520;50.954;6.968;2024-01-07T00:53:07;1.90;;;1.60;;
18783;SDS011;9520;50.954;6.968;2024-01-07T00:53:29;2.67;;;1.63;;
18783;SDS011;9520;50.954;6.968;2024-01-07T00:53:51;3.55;;;2.05;;
18783;SDS011;9520;50.954;6.968;2024-01-07T00:54:14;4.40;;;2.30;;
18783;SDS011;9520;50.954;6.968;2024-01-07T00:54:36;5.40;;;2.35;;
18783;SDS011;9520;50.954;6.968;2024-01-07T00:54:58;3.92;;;2.22;;
18783;SDS011;9520;50.954;6.968;2024-01-07T00:55:20;2.25;;;1.50;;
18783;SDS011;9520;50.954;6.968;2024-01-07T00:55:44;4.40;;;1.90;;
18783;SDS011;9520;50.954;6.968;2024-01-07T00:56:06;3.22;;;2.25;;
18783;SDS011;9520;50.954;6.968;2024-01-07T00:56:28;3.17;;;2.13;;
18783;SDS011;9520;50.954;6.968;2024-01-07T00:56:51;2.30;;;1.77;;
18783;SDS011;9520;50.954;6.968;2024-01-07T00:57:14;1.55;;;1.45;;
18783;SDS011;9520;50.954;6.968;2024-01-07T00:57:37;2.85;;;1.55;;
18783;SDS011;9520;50.954;6.968;2024-01-07T00:57:58;3.20;;;1.77;;
18783;SDS011;9520;50.954;6.968;2024-01-07T00:58:20;3.42;;;1.83;;
18783;SDS011;9520;50.954;6.968;2024-01-07T00:58:42;1.97;;;1.23;;
18783;SDS011;9520;50.954;6.968;2024-01-07T00:59:04;3.72;;;1.70;;
18783;SDS011;9520;50.954;6.968;2024-01-07T00:59:27;3.42;;;1.80;;
18783;SDS011;9520;50.954;6.968;2024-01-07T00:59:50;2.47;;;1.55;;
18783;SDS011;9520;50.954;6.968;2024-01-07T01:00:12;2.03;;;1.30;;
18783;SDS011;9520;50.954;6.968;2024-01-07T01:00:34;2.22;;;1.52;;
18783;SDS011;9520;50.954;6.968;2024-01-07T01:00:56;3.30;;;1.88;;
18783;SDS011;9520;50.954;6.968;2024-01-07T01:01:18;2.40;;;1.50;;
18783;SDS011;9520;50.954;6.968;2024-01-07T01:01:40;1.50;;;1.27;;
18783;SDS011;9520;50.954;6.968;2024-01-07T01:02:03;6.30;;;1.90;;
18783;SDS011;9520;50.954;6.968;2024-01-07T01:02:25;3.08;;;1.77;;
18783;SDS011;9520;50.954;6.968;2024-01-07T01:02:47;2.85;;;1.75;;
18783;SDS011;9520;50.954;6.968;2024-01-07T01:03:08;3.10;;;1.85;;
18783;SDS011;9520;50.954;6.968;2024-01-07T01:03:30;2.63;;;1.85;;
18783;SDS011;9520;50.954;6.968;2024-01-07T01:03:52;3.47;;;1.80;;
18783;SDS011;9520;50.954;6.968;2024-01-07T01:04:14;2.25;;;1.30;;
18783;SDS011;9520;50.954;6.968;2024-01-07T01:04:38;2.53;;;1.75;;
18783;SDS011;9520;50.954;6.968;2024-01-07T01:05:00;2.70;;;1.80;;
18783;SDS011;9520;50.954;6.968;2024-01-07T01:05:22;1.80;;;1.50;;
18783;SDS011;9520;50.954;6.968;2024-01-07T01:05:43;1.67;;;1.42;;
18783;SDS011;9520;50.954;6.968;2024-01-07T01:06:06;2.03;;;1.70;;
18783;SDS011;9520;50.954;6.968;2024-01-07T01:06:28;1.77;;;1.45;;
18783;SDS011;9520;50.954;6.968;2024-01-07T01:06:50;2.95;;;2.13;;
18783;SDS011;9520;50.954;6.968;2024-01-07T01:07:11;2.05;;;1.60;;
18783;SDS011;9520;50.954;6.968;2024-01-07T01:07:33;2.57;;;2.27;;
18783;SDS011;9520;50.954;6.968;2024-01-07T01:07:55;2.00;;;1.73;;
18783;SDS011;9520;50.954;6.968;2024-01-07T01:08:18;1.67;;;1.33;;
18783;SDS011;9520;50.954;6.968;2024-01-07T01:08:40;2.35;;;1.42;;
18783;SDS011;9520;50.954;6.968;2024-01-07T01:09:50;3.38;;;1.50;;
18783;SDS011;9520;50.954;6.968;2024-01-07T01:10:13;2.17;;;1.80;;
18783;SDS011;9520;50.954;6.968;2024-01-07T01:10:38;3.40;;;1.95;;
18783;SDS011;9520;50.954;6.968;2024-01-07T01:10:59;3.03;;;2.08;;
18783;SDS011;9520;50.954;6.968;2024-01-07T01:11:21;2.50;;;1.60;;
18783;SDS011;9520;50.954;6.968;2024-01-07T01:11:43;2.25;;;1.73;;
18783;SDS011;9520;50.954;6.968;2024-01-07T01:12:06;3.08;;;1.95;;
18783;SDS011;9520;50.954;6.968;2024-01-07T01:12:29;2.90;;;1.63;;
18783;SDS011;9520;50.954;6.968;2024-01-07T01:12:51;2.65;;;1.63;;
18783;SDS011;9520;50.954;6.968;2024-01-07T01:13:15;1.45;;;1.30;;
18783;SDS011;9520;50.954;6.968;2024-01-07T01:13:37;1.63;;;1.42;;
18783;SDS011;9520;50.954;6.968;2024-01-07T01:13:59;1.97;;;1.50;;
18783;SDS011;9520;50.954;6.968;2024-01-07T01:14:21;1.63;;;1.30;;
18783;SDS011;9520;50.954;6.968;2024-01-07T01:14:43;1.50;;;1.40;;
18783;SDS011;9520;50.954;6.968;2024-01-07T01:15:05;2.22;;;1.58;;
18783;SDS011;9520;50.954;6.968;2024-01-07T01:15:26;3.58;;;1.23;;
18783;SDS011;9520;50.954;6.968;2024-01-07T01:15:48;2.10;;;1.60;;
18783;SDS011;9520;50.954;6.968;2024-01-07T01:16:11;2.08;;;1.55;;
18783;SDS011;9520;50.954;6.968;2024-01-07T01:16:33;1.48;;;1.27;;
18783;SDS011;9520;50.954;6.968;2024-01-07T01:16:55;2.17;;;1.40;;
18783;SDS011;9520;50.954;6.968;2024-01-07T01:17:16;2.33;;;1.48;;
18783;SDS011;9520;50.954;6.968;2024-01-07T01:17:38;3.05;;;1.63;;
18783;SDS011;9520;50.954;6.968;2024-01-07T01:18:01;3.20;;;1.92;;
18783;SDS011;9520;50.954;6.968;2024-01-07T01:18:23;4.00;;;1.95;;
18783;SDS011;9520;50.954;6.968;2024-01-07T01:18:45;3.60;;;1.60;;
18783;SDS011;9520;50.954;6.968;2024-01-07T01:19:07;1.90;;;1.40;;
18783;SDS011;9520;50.954;6.968;2024-01-07T01:19:30;2.40;;;1.45;;
18783;SDS011;9520;50.954;6.968;2024-01-07T01:19:53;2.35;;;1.50;;
18783;SDS011;9520;50.954;6.968;2024-01-07T01:20:15;4.43;;;1.75;;
18783;SDS011;9520;50.954;6.968;2024-01-07T01:20:36;4.70;;;1.73;;
18783;SDS011;9520;50.954;6.968;2024-01-07T01:20:58;2.20;;;1.65;;
18783;SDS011;9520;50.954;6.968;2024-01-07T01:21:20;2.50;;;1.67;;
18783;SDS011;9520;50.954;6.968;2024-01-07T01:21:42;2.10;;;1.38;;
18783;SDS011;9520;50.954;6.968;2024-01-07T01:22:04;2.33;;;1.30;;
18783;SDS011;9520;50.954;6.968;2024-01-07T01:22:26;2.50;;;1.45;;
18783;SDS011;9520;50.954;6.968;2024-01-07T01:22:48;2.03;;;1.40;;
18783;SDS011;9520;50.954;6.968;2024-01-07T01:23:09;2.78;;;1.60;;
18783;SDS011;9520;50.954;6.968;2024-01-07T01:23:32;3.20;;;1.40;;
18783;SDS011;9520;50.954;6.968;2024-01-07T01:23:54;2.97;;;1.63;;
18783;SDS011;9520;50.954;6.968;2024-01-07T01:24:15;2.13;;;1.65;;
18783;SDS011;9520;50.954;6.968;2024-01-07T01:24:37;2.13;;;1.65;;
18783;SDS011;9520;50.954;6.968;2024-01-07T01:24:59;3.60;;;1.63;;
18783;SDS011;9520;50.954;6.968;2024-01-07T01:25:21;2.67;;;1.50;;
18783;SDS011;9520;50.954;6.968;2024-01-07T01:25:44;2.35;;;1.60;;
18783;SDS011;9520;50.954;6.968;2024-01-07T01:26:06;1.70;;;1.33;;
18783;SDS011;9520;50.954;6.968;2024-01-07T01:26:27;1.63;;;1.23;;
18783;SDS011;9520;50.954;6.968;2024-01-07T01:26:49;1.83;;;1.30;;
18783;SDS011;9520;50.954;6.968;2024-01-07T01:27:12;1.90;;;1.10;;
18783;SDS011;9520;50.954;6.968;2024-01-07T01:27:36;1.98;;;1.30;;
18783;SDS011;9520;50.954;6.968;2024-01-07T01:27:58;2.33;;;1.38;;
18783;SDS011;9520;50.954;6.968;2024-01-07T01:28:19;1.48;;;1.33;;
18783;SDS011;9520;50.954;6.968;2024-01-07T01:28:41;1.65;;;1.50;;
18783;SDS011;9520;50.954;6.968;2024-01-07T01:29:04;2.10;;;1.55;;
18783;SDS011;9520;50.954;6.968;2024-01-07T01:29:25;1.50;;;1.35;;
18783;SDS011;9520;50.954;6.968;2024-01-07T01:29:47;1.77;;;1.50;;
18783;SDS011;9520;50.954;6.968;2024-01-07T01:30:09;1.48;;;1.38;;
18783;SDS011;9520;50.954;6.968;2024-01-07T01:30:32;1.30;;;1.20;;
18783;SDS011;9520;50.954;6.968;2024-01-07T01:30:55;2.45;;;1.55;;
18783;SDS011;9520;50.954;6.968;2024-01-07T01:31:17;1.30;;;1.20;;
18783;SDS011;9520;50.954;6.968;2024-01-07T01:31:40;1.50;;;1.40;;
18783;SDS011;9520;50.954;6.968;2024-01-07T01:32:02;1.75;;;1.50;;
18783;SDS011;9520;50.954;6.968;2024-01-07T01:32:24;1.60;;;1.50;;
18783;SDS011;9520;50.954;6.968;2024-01-07T01:32:46;1.98;;;1.73;;
18783;SDS011;9520;50.954;6.968;2024-01-07T01:33:08;2.65;;;1.88;;
18783;SDS011;9520;50.954;6.968;2024-01-07T01:33:30;3.67;;;1.88;;
18783;SDS011;9520;50.954;6.968;2024-01-07T01:33:52;2.92;;;1.63;;
18783;SDS011;9520;50.954;6.968;2024-01-07T01:34:15;2.33;;;1.35;;
18783;SDS011;9520;50.954;6.968;2024-01-07T01:34:37;2.38;;;1.40;;
18783;SDS011;9520;50.954;6.968;2024-01-07T01:34:58;2.65;;;1.35;;
18783;SDS011;9520;50.954;6.968;2024-01-07T01:35:20;3.28;;;1.77;;
18783;SDS011;9520;50.954;6.968;2024-01-07T01:35:42;3.70;;;1.63;;
18783;SDS011;9520;50.954;6.968;2024-01-07T01:36:05;3.38;;;1.52;;
18783;SDS011;9520;50.954;6.968;2024-01-07T01:36:27;1.67;;;1.33;;
18783;SDS011;9520;50.954;6.968;2024-01-07T01:36:49;1.50;;;1.30;;
18783;SDS011;9520;50.954;6.968;2024-01-07T01:37:11;2.63;;;1.73;;
18783;SDS011;9520;50.954;6.968;2024-01-07T01:37:33;2.38;;;1.42;;
18783;SDS011;9520;50.954;6.968;2024-01-07T01:37:54;1.02;;;1.02;;
18783;SDS011;9520;50.954;6.968;2024-01-07T01:38:17;1.38;;;1.23;;
18783;SDS011;9520;50.954;6.968;2024-01-07T01:38:39;1.92;;;1.38;;
18783;SDS011;9520;50.954;6.968;2024-01-07T01:39:00;1.77;;;1.42;;
18783;SDS011;9520;50.954;6.968;2024-01-07T01:39:22;1.25;;;1.08;;
18783;SDS011;9520;50.954;6.968;2024-01-07T01:39:44;2.10;;;1.50;;
18783;SDS011;9520;50.954;6.968;2024-01-07T01:40:06;1.55;;;1.23;;
18783;SDS011;9520;50.954;6.968;2024-01-07T01:40:30;1.23;;;1.17;;
18783;SDS011;9520;50.954;6.968;2024-01-07T01:40:52;1.50;;;1.40;;
18783;SDS011;9520;50.954;6.968;2024-01-07T01:41:15;1.80;;;1.38;;
18783;SDS011;9520;50.954;6.968;2024-01-07T01:41:37;2.00;;;1.38;;
18783;SDS011;9520;50.954;6.968;2024-01-07T01:42:00;5.00;;;1.38;;
18783;SDS011;9520;50.954;6.968;2024-01-07T01:42:22;1.38;;;1.23;;
18783;SDS011;9520;50.954;6.968;2024-01-07T01:42:45;2.17;;;1.42;;
18783;SDS011;9520;50.954;6.968;2024-01-07T01:43:09;1.73;;;1.58;;
18783;SDS011;9520;50.954;6.968;2024-01-07T01:43:31;1.48;;;1.38;;
18783;SDS011;9520;50.954;6.968;2024-01-07T01:43:57;1.60;;;1.17;;
18783;SDS011;9520;50.954;6.968;2024-01-07T01:44:19;1.50;;;1.10;;
18783;SDS011;9520;50.954;6.968;2024-01-07T01:44:41;1.50;;;1.00;;
18783;SDS011;9520;50.954;6.968;2024-01-07T01:45:03;2.63;;;1.30;;
18783;SDS011;9520;50.954;6.968;2024-01-07T01:45:25;1.35;;;1.15;;
18783;SDS011;9520;50.954;6.968;2024-01-07T01:45:48;1.90;;;1.30;;
18783;SDS011;9520;50.954;6.968;2024-01-07T01:46:11;2.00;;;1.35;;
18783;SDS011;9520;50.954;6.968;2024-01-07T01:46:34;1.80;;;1.50;;
18783;SDS011;9520;50.954;6.968;2024-01-07T01:46:56;1.77;;;1.55;;
18783;SDS011;9520;50.954;6.968;2024-01-07T01:47:17;1.40;;;1.30;;
18783;SDS011;9520;50.954;6.968;2024-01-07T01:47:39;2.58;;;1.60;;
18783;SDS011;9520;50.954;6.968;2024-01-07T01:48:02;1.92;;;1.10;;
18783;SDS011;9520;50.954;6.968;2024-01-07T01:48:25;3.00;;;1.40;;
18783;SDS011;9520;50.954;6.968;2024-01-07T01:48:48;2.00;;;1.20;;
18783;SDS011;9520;50.954;6.968;2024-01-07T01:49:09;1.38;;;1.20;;
18783;SDS011;9520;50.954;6.968;2024-01-07T01:49:31;1.75;;;1.45;;
18783;SDS011;9520;50.954;6.968;2024-01-07T01:49:57;1.75;;;1.42;;
18783;SDS011;9520;50.954;6.968;2024-01-07T01:50:19;1.80;;;1.00;;
18783;SDS011;9520;50.954;6.968;2024-01-07T01:50:41;1.48;;;1.38;;
18783;SDS011;9520;50.954;6.968;2024-01-07T01:51:03;1.58;;;1.45;;
18783;SDS011;9520;50.954;6.968;2024-01-07T01:51:25;1.83;;;1.35;;
18783;SDS011;9520;50.954;6.968;2024-01-07T01:51:48;1.33;;;1.23;;
18783;SDS011;9520;50.954;6.968;2024-01-07T01:52:11;1.38;;;1.17;;
18783;SDS011;9520;50.954;6.968;2024-01-07T01:52:35;1.67;;;1.30;;
18783;SDS011;9520;50.954;6.968;2024-01-07T01:52:57;1.20;;;1.10;;
18783;SDS011;9520;50.954;6.968;2024-01-07T01:53:19;1.98;;;1.23;;
18783;SDS011;9520;50.954;6.968;2024-01-07T01:53:41;1.98;;;1.27;;
18783;SDS011;9520;50.954;6.968;2024-01-07T01:54:05;1.83;;;1.67;;
18783;SDS011;9520;50.954;6.968;2024-01-07T01:54:27;1.83;;;1.42;;
18783;SDS011;9520;50.954;6.968;2024-01-07T01:54:49;2.58;;;1.88;;
18783;SDS011;9520;50.954;6.968;2024-01-07T01:55:11;1.50;;;1.40;;
18783;SDS011;9520;50.954;6.968;2024-01-07T01:55:33;1.95;;;1.48;;
18783;SDS011;9520;50.954;6.968;2024-01-07T01:55:57;1.73;;;1.40;;
18783;SDS011;9520;50.954;6.968;2024-01-07T01:56:20;1.55;;;1.05;;
18783;SDS011;9520;50.954;6.968;2024-01-07T01:56:42;3.08;;;1.63;;
18783;SDS011;9520;50.954;6.968;2024-01-07T01:57:04;2.97;;;1.50;;
18783;SDS011;9520;50.954;6.968;2024-01-07T01:57:28;3.35;;;1.40;;
18783;SDS011;9520;50.954;6.968;2024-01-07T01:57:55;1.42;;;1.33;;
18783;SDS011;9520;50.954;6.968;2024-01-07T01:58:21;2.30;;;1.58;;
18783;SDS011;9520;50.954;6.968;2024-01-07T01:58:44;2.60;;;1.77;;
18783;SDS011;9520;50.954;6.968;2024-01-07T01:59:06;2.25;;;1.48;;
18783;SDS011;9520;50.954;6.968;2024-01-07T01:59:28;2.50;;;1.80;;
18783;SDS011;9520;50.954;6.968;2024-01-07T01:59:50;1.33;;;1.20;;
18783;SDS011;9520;50.954;6.968;2024-01-07T02:00:13;1.63;;;1.35;;
18783;SDS011;9520;50.954;6.968;2024-01-07T02:00:35;1.23;;;1.13;;
18783;SDS011;9520;50.954;6.968;2024-01-07T02:00:57;1.23;;;1.13;;
18783;SDS011;9520;50.954;6.968;2024-01-07T02:01:20;1.60;;;1.40;;
18783;SDS011;9520;50.954;6.968;2024-01-07T02:01:42;1.67;;;1.42;;
18783;SDS011;9520;50.954;6.968;2024-01-07T02:02:05;2.47;;;1.75;;
18783;SDS011;9520;50.954;6.968;2024-01-07T02:02:28;2.20;;;1.88;;
18783;SDS011;9520;50.954;6.968;2024-01-07T02:02:51;1.40;;;1.30;;
18783;SDS011;9520;50.954;6.968;2024-01-07T02:03:12;2.20;;;1.40;;
18783;SDS011;9520;50.954;6.968;2024-01-07T02:03:34;2.50;;;1.70;;
18783;SDS011;9520;50.954;6.968;2024-01-07T02:03:56;3.00;;;1.58;;
18783;SDS011;9520;50.954;6.968;2024-01-07T02:04:19;2.55;;;1.40;;
18783;SDS011;9520;50.954;6.968;2024-01-07T02:04:41;1.50;;;1.35;;
18783;SDS011;9520;50.954;6.968;2024-01-07T02:05:03;1.88;;;1.30;;
18783;SDS011;9520;50.954;6.968;2024-01-07T02:05:25;2.55;;;1.67;;
18783;SDS011;9520;50.954;6.968;2024-01-07T02:05:48;2.20;;;1.42;;
18783;SDS011;9520;50.954;6.968;2024-01-07T02:06:11;2.92;;;1.65;;
18783;SDS011;9520;50.954;6.968;2024-01-07T02:06:33;2.13;;;1.30;;
18783;SDS011;9520;50.954;6.968;2024-01-07T02:06:56;0.95;;;0.93;;
18783;SDS011;9520;50.954;6.968;2024-01-07T02:07:17;1.02;;;0.93;;
18783;SDS011;9520;50.954;6.968;2024-01-07T02:07:39;2.38;;;1.45;;
18783;SDS011;9520;50.954;6.968;2024-01-07T02:08:03;1.60;;;1.20;;
18783;SDS011;9520;50.954;6.968;2024-01-07T02:08:27;1.33;;;1.17;;
18783;SDS011;9520;50.954;6.968;2024-01-07T02:08:48;2.28;;;1.30;;
18783;SDS011;9520;50.954;6.968;2024-01-07T02:09:11;3.65;;;1.40;;
18783;SDS011;9520;50.954;6.968;2024-01-07T02:09:32;4.13;;;1.58;;
18783;SDS011;9520;50.954;6.968;2024-01-07T02:09:54;2.72;;;1.42;;
18783;SDS011;9520;50.954;6.968;2024-01-07T02:10:17;2.38;;;1.60;;
18783;SDS011;9520;50.954;6.968;2024-01-07T02:10:39;2.72;;;1.63;;
18783;SDS011;9520;50.954;6.968;2024-01-07T02:11:16;1.40;;;1.30;;
18783;SDS011;9520;50.954;6.968;2024-01-07T02:11:39;1.58;;;1.42;;
18783;SDS011;9520;50.954;6.968;2024-01-07T02:12:02;2.13;;;1.35;;
18783;SDS011;9520;50.954;6.968;2024-01-07T02:12:24;1.13;;;1.08;;
18783;SDS011;9520;50.954;6.968;2024-01-07T02:12:46;4.78;;;1.58;;
18783;SDS011;9520;50.954;6.968;2024-01-07T02:13:10;3.17;;;1.73;;
18783;SDS011;9520;50.954;6.968;2024-01-07T02:13:32;1.95;;;1.30;;
18783;SDS011;9520;50.954;6.968;2024-01-07T02:13:54;4.60;;;1.40;;
18783;SDS011;9520;50.954;6.968;2024-01-07T02:14:17;4.82;;;1.42;;
18783;SDS011;9520;50.954;6.968;2024-01-07T02:14:39;2.67;;;1.52;;
18783;SDS011;9520;50.954;6.968;2024-01-07T02:15:00;2.30;;;1.48;;
18783;SDS011;9520;50.954;6.968;2024-01-07T02:15:22;1.90;;;1.60;;
18783;SDS011;9520;50.954;6.968;2024-01-07T02:15:44;2.38;;;1.60;;
18783;SDS011;9520;50.954;6.968;2024-01-07T02:16:07;2.28;;;1.60;;
18783;SDS011;9520;50.954;6.968;2024-01-07T02:16:28;1.70;;;1.20;;
18783;SDS011;9520;50.954;6.968;2024-01-07T02:16:50;1.50;;;1.13;;
18783;SDS011;9520;50.954;6.968;2024-01-07T02:17:12;1.92;;;1.30;;